Ctr Moriches, New York
Current Conditions -  °F | °C
As of 5:56 PM on Friday 19 Dec 2014 (Local Time) from KHWV Reporting Station
Overcast Overcast  
Wind Chill: 28°   Ceiling: 3600
Heat Index: 36°   Visibility: 10mi
Dew Point: 23°   Wind: 10mph
Humidity: 59%   Direction: 350°N
Pressure: 30.09"   Gusts: NA
Location:  40.8046°N, 72.7931°W
Report Text: KHWV 192256Z AUTO 35009KT 10SM OVC036 02/M05 A3009 RMK AO2 SLP188 T00221050 TSNO
Loading
Personal Weather Stations






























Interactive Weather Map New forecast layout! Learn more

10-Day Weather Forecast

Advertisements
Track Severe Weather on mobile